createdAt,value
2023-04-17T00:02:02.358Z,85.16
2023-04-17T00:04:28.811Z,85.92
2023-04-17T00:06:55.201Z,86.24
2023-04-17T00:09:21.497Z,85.90
2023-04-17T00:11:48.111Z,85.89
2023-04-17T00:14:14.408Z,85.69
2023-04-17T00:16:40.811Z,86.22
2023-04-17T00:19:07.183Z,86.90
2023-04-17T00:21:33.548Z,86.81
2023-04-17T00:23:59.853Z,85.97
2023-04-17T00:26:26.172Z,86.25
2023-04-17T00:28:52.508Z,86.87
2023-04-17T00:31:19.126Z,86.09
2023-04-17T00:33:46.279Z,85.82
2023-04-17T00:36:13.712Z,86.51
2023-04-17T00:38:40.095Z,85.72
2023-04-17T00:41:06.373Z,85.68
2023-04-17T00:43:32.723Z,85.50
2023-04-17T00:45:59.249Z,86.26
2023-04-17T00:48:26.274Z,86.03
2023-04-17T00:50:52.829Z,86.01
2023-04-17T00:53:19.349Z,86.92
2023-04-17T00:55:48.202Z,87.10
2023-04-17T00:58:15.525Z,86.48
2023-04-17T01:00:41.888Z,87.25
2023-04-17T01:03:08.623Z,86.03
2023-04-17T01:05:38.154Z,86.73
2023-04-17T01:08:04.790Z,86.46
2023-04-17T01:10:31.132Z,86.38
2023-04-17T01:13:07.664Z,87.00
2023-04-17T01:15:35.647Z,86.67
2023-04-17T01:18:02.909Z,86.80
2023-04-17T01:20:32.202Z,87.48
2023-04-17T01:22:59.317Z,86.78
2023-04-17T01:25:26.597Z,87.57
2023-04-17T01:27:53.237Z,87.47
2023-04-17T01:30:20.192Z,87.39
2023-04-17T01:32:46.590Z,86.76
2023-04-17T01:35:13.054Z,87.66
2023-04-17T01:37:39.363Z,87.50
2023-04-17T01:40:07.070Z,87.48
2023-04-17T01:42:36.430Z,87.47
2023-04-17T01:45:03.335Z,87.59
2023-04-17T01:47:29.646Z,88.17
2023-04-17T01:49:56.024Z,87.63
2023-04-17T01:52:22.334Z,88.08
2023-04-17T01:54:48.625Z,88.51
2023-04-17T01:57:14.949Z,88.26
2023-04-17T01:59:41.272Z,87.54
2023-04-17T02:02:07.690Z,87.71
2023-04-17T02:04:34.152Z,88.35
2023-04-17T02:07:00.528Z,88.33
2023-04-17T02:09:26.991Z,87.93
2023-04-17T02:11:53.351Z,88.47
2023-04-17T02:14:20.989Z,88.42
2023-04-17T02:16:47.346Z,87.84
2023-04-17T02:19:13.875Z,87.62
2023-04-17T02:21:40.655Z,87.79
2023-04-17T02:24:07.014Z,88.74
2023-04-17T02:26:33.741Z,88.48
2023-04-17T02:29:00.027Z,88.22
2023-04-17T02:31:27.079Z,88.47
2023-04-17T02:33:53.458Z,88.39
2023-04-17T02:36:19.834Z,88.77
2023-04-17T02:38:46.325Z,88.27
2023-04-17T02:41:12.595Z,88.19
2023-04-17T02:43:38.968Z,87.80
2023-04-17T02:46:05.588Z,88.32
2023-04-17T02:48:31.889Z,88.40
2023-04-17T02:50:58.178Z,87.81
2023-04-17T02:53:24.477Z,88.44
2023-04-17T02:55:50.777Z,88.70
2023-04-17T02:58:17.133Z,88.67
2023-04-17T03:00:43.532Z,88.69
2023-04-17T03:03:10.033Z,87.48
2023-04-17T03:05:36.549Z,87.55
2023-04-17T03:08:03.267Z,88.10
2023-04-17T03:10:29.610Z,87.65
2023-04-17T03:12:55.952Z,87.86
2023-04-17T03:15:22.354Z,87.96
2023-04-17T03:17:48.734Z,87.85
2023-04-17T03:20:16.080Z,88.52
2023-04-17T03:22:42.596Z,87.48
2023-04-17T03:25:09.546Z,87.88
2023-04-17T03:27:35.819Z,88.27
2023-04-17T03:30:02.106Z,88.66
2023-04-17T03:32:28.467Z,88.64
2023-04-17T03:34:54.780Z,88.51
2023-04-17T03:37:21.383Z,88.75
2023-04-17T03:39:47.734Z,88.20
2023-04-17T03:42:14.639Z,88.66
2023-04-17T03:44:41.121Z,88.12
2023-04-17T03:47:07.418Z,88.54
2023-04-17T03:49:34.067Z,88.85
2023-04-17T03:52:00.398Z,88.95
2023-04-17T03:54:27.333Z,88.65
2023-04-17T03:56:53.653Z,88.82
2023-04-17T03:59:20.216Z,89.08
2023-04-17T04:01:46.856Z,88.76
2023-04-17T04:04:13.393Z,88.45
2023-04-17T04:06:41.032Z,88.88
2023-04-17T04:09:07.329Z,89.11
2023-04-17T04:11:33.619Z,88.76
2023-04-17T04:13:59.914Z,88.56
2023-04-17T04:16:27.163Z,89.01
2023-04-17T04:18:53.510Z,89.02
2023-04-17T04:21:19.838Z,89.11
2023-04-17T04:23:46.145Z,89.05
2023-04-17T04:26:12.491Z,88.73
2023-04-17T04:28:38.777Z,88.83
2023-04-17T04:31:05.572Z,89.43
2023-04-17T04:33:31.882Z,89.26
2023-04-17T04:36:01.482Z,89.03
2023-04-17T04:38:32.476Z,89.34
2023-04-17T04:41:05.844Z,89.51
2023-04-17T04:43:33.482Z,89.19
2023-04-17T04:45:59.862Z,89.43
2023-04-17T04:48:26.201Z,89.37
2023-04-17T04:50:52.585Z,89.36
2023-04-17T04:53:18.953Z,89.91
2023-04-17T04:55:45.459Z,88.92
2023-04-17T04:58:11.735Z,89.57
2023-04-17T05:00:38.582Z,89.87
2023-04-17T05:03:05.349Z,89.86
2023-04-17T05:05:31.939Z,89.16
2023-04-17T05:07:58.237Z,89.83
2023-04-17T05:10:25.167Z,90.16
2023-04-17T05:12:51.512Z,89.87
2023-04-17T05:15:17.812Z,89.63
2023-04-17T05:17:44.740Z,89.91
2023-04-17T05:20:12.245Z,89.29
2023-04-17T05:22:38.777Z,89.76
2023-04-17T05:25:05.263Z,89.25
2023-04-17T05:27:31.539Z,89.07
2023-04-17T05:29:57.879Z,89.47
2023-04-17T05:32:24.301Z,88.99
2023-04-17T05:34:50.731Z,89.39
2023-04-17T05:37:17.080Z,88.92
2023-04-17T05:39:43.445Z,88.60
2023-04-17T05:42:09.764Z,88.75
2023-04-17T05:44:36.074Z,88.60
2023-04-17T05:47:03.301Z,87.61
2023-04-17T05:49:30.046Z,87.77
2023-04-17T05:51:56.524Z,87.22
2023-04-17T05:54:22.830Z,87.11
2023-04-17T05:56:49.912Z,87.00
2023-04-17T05:59:16.398Z,86.96
2023-04-17T06:01:43.555Z,87.56
2023-04-17T06:04:10.335Z,86.64
2023-04-17T06:06:36.908Z,86.51
2023-04-17T06:09:05.310Z,86.60
2023-04-17T06:11:31.847Z,86.73
2023-04-17T06:13:58.217Z,85.82
2023-04-17T06:16:24.648Z,85.68
2023-04-17T06:18:51.111Z,86.19
2023-04-17T06:21:17.576Z,85.17
2023-04-17T06:23:43.903Z,85.84
2023-04-17T06:26:10.958Z,85.47
2023-04-17T06:28:37.264Z,85.22
2023-04-17T06:31:03.809Z,84.67
2023-04-17T06:33:30.305Z,85.13
2023-04-17T06:35:56.651Z,84.21
2023-04-17T06:38:22.962Z,84.31
2023-04-17T06:40:51.386Z,83.07
2023-04-17T06:43:18.856Z,83.39
2023-04-17T06:45:45.293Z,83.25
2023-04-17T06:48:11.598Z,82.97
2023-04-17T06:50:37.985Z,83.55
2023-04-17T06:53:04.371Z,82.80
2023-04-17T06:55:30.746Z,82.82
2023-04-17T06:57:57.049Z,81.16
2023-04-17T07:00:23.437Z,81.65
2023-04-17T07:02:50.745Z,81.39
2023-04-17T07:05:17.263Z,81.17
2023-04-17T07:07:43.553Z,79.56
2023-04-17T07:10:10.313Z,79.07
2023-04-17T07:12:36.668Z,78.63
2023-04-17T07:15:03.192Z,78.67
2023-04-17T07:17:29.707Z,78.10
2023-04-17T07:19:56.604Z,76.33
2023-04-17T07:22:24.028Z,75.69
2023-04-17T07:24:51.679Z,76.77
2023-04-17T07:27:18.195Z,77.56
2023-04-17T07:29:46.737Z,77.66
2023-04-17T07:32:14.477Z,77.93
2023-04-17T07:34:42.014Z,77.89
2023-04-17T07:37:08.371Z,78.26
2023-04-17T07:39:34.685Z,76.90
2023-04-17T07:42:06.187Z,77.14
2023-04-17T07:44:32.777Z,77.33
2023-04-17T07:46:59.135Z,77.41
2023-04-17T07:49:25.504Z,77.80
2023-04-17T07:51:51.810Z,78.50
2023-04-17T07:54:18.096Z,79.31
2023-04-17T07:56:46.488Z,79.60
2023-04-17T07:59:13.495Z,79.12
2023-04-17T08:01:41.050Z,78.99
2023-04-17T08:04:07.513Z,79.64
2023-04-17T08:06:34.061Z,79.38
2023-04-17T08:09:02.106Z,77.75
2023-04-17T08:11:29.166Z,77.95
2023-04-17T08:13:55.829Z,77.64
2023-04-17T08:16:22.108Z,78.46
2023-04-17T08:18:48.640Z,78.51
2023-04-17T08:21:14.964Z,78.48
2023-04-17T08:23:41.751Z,78.98
2023-04-17T08:26:08.063Z,78.53
2023-04-17T08:28:34.356Z,79.02
2023-04-17T08:31:00.713Z,78.78
2023-04-17T08:33:27.159Z,79.15
2023-04-17T08:35:53.480Z,77.79
2023-04-17T08:38:19.865Z,77.39
2023-04-17T08:40:51.787Z,77.38
2023-04-17T08:43:19.974Z,77.74
2023-04-17T08:45:55.303Z,78.74
2023-04-17T08:48:22.914Z,78.20
2023-04-17T08:50:50.851Z,78.37
2023-04-17T08:53:18.674Z,78.33
2023-04-17T08:55:45.820Z,79.03
2023-04-17T08:58:13.494Z,78.76
2023-04-17T09:00:42.190Z,79.46
2023-04-17T09:03:13.629Z,81.16
2023-04-17T09:05:43.214Z,80.79
2023-04-17T09:08:29.104Z,80.49
2023-04-17T09:10:55.888Z,81.67
2023-04-17T09:13:24.950Z,82.01
2023-04-17T09:16:19.978Z,81.35
2023-04-17T09:18:46.768Z,81.73
2023-04-17T09:21:14.726Z,80.64
2023-04-17T09:23:50.978Z,80.08
2023-04-17T09:26:19.901Z,79.90
2023-04-17T09:29:08.877Z,79.73
2023-04-17T09:31:37.160Z,80.58
2023-04-17T09:34:07.289Z,80.92
2023-04-17T09:36:36.861Z,81.62
2023-04-17T09:39:06.171Z,80.28
2023-04-17T09:41:39.091Z,81.21
2023-04-17T09:44:06.375Z,80.35
2023-04-17T09:46:45.663Z,79.82
2023-04-17T09:49:29.887Z,79.41
2023-04-17T09:51:58.062Z,77.81
2023-04-17T09:54:25.151Z,78.74
2023-04-17T09:56:55.648Z,78.75
2023-04-17T09:59:24.845Z,79.78
2023-04-17T10:01:54.047Z,80.38
2023-04-17T10:04:21.296Z,79.56
2023-04-17T10:06:48.774Z,79.80
2023-04-17T10:09:15.201Z,80.11
2023-04-17T10:11:44.596Z,79.39
2023-04-17T10:14:38.608Z,79.62
2023-04-17T10:17:26.439Z,79.23
2023-04-17T10:19:52.911Z,78.82
2023-04-17T10:22:19.155Z,77.41
2023-04-17T10:24:48.280Z,75.21
2023-04-17T10:27:26.907Z,74.99
2023-04-17T10:30:04.086Z,69.82
2023-04-17T10:32:31.571Z,67.15
2023-04-17T10:35:00.863Z,65.98
2023-04-17T10:37:52.118Z,64.36
2023-04-17T10:40:23.422Z,61.61
2023-04-17T10:43:11.773Z,61.49
2023-04-17T10:46:10.975Z,61.61
2023-04-17T10:48:50.466Z,64.44
2023-04-17T10:51:26.942Z,63.08
2023-04-17T10:53:58.128Z,64.22
2023-04-17T10:56:26.337Z,65.68
2023-04-17T10:59:04.093Z,65.29
2023-04-17T11:01:36.734Z,65.65
2023-04-17T11:04:04.330Z,65.01
2023-04-17T11:06:36.303Z,65.43
2023-04-17T11:09:06.408Z,65.38
2023-04-17T11:11:44.698Z,65.90
2023-04-17T11:14:16.691Z,65.03
2023-04-17T11:16:44.966Z,64.37
2023-04-17T11:19:16.835Z,63.18
2023-04-17T11:21:44.346Z,62.72
2023-04-17T11:24:11.051Z,61.45
2023-04-17T11:26:47.283Z,61.96
2023-04-17T11:29:17.607Z,59.37
2023-04-17T11:31:47.348Z,58.78
2023-04-17T11:34:15.530Z,55.32
2023-04-17T11:36:57.068Z,55.03
2023-04-17T11:39:25.549Z,56.05
2023-04-17T11:41:52.490Z,56.19
2023-04-17T11:44:22.808Z,57.11
2023-04-17T11:46:53.580Z,57.40
2023-04-17T11:49:31.584Z,57.16
2023-04-17T11:52:01.925Z,57.94
2023-04-17T11:54:29.940Z,57.58
2023-04-17T11:57:02.998Z,58.90
2023-04-17T11:59:33.980Z,58.13
2023-04-17T12:02:01.757Z,58.06
2023-04-17T12:04:29.942Z,58.75
2023-04-17T12:06:58.490Z,58.60
2023-04-17T12:09:31.094Z,56.59
2023-04-17T12:11:58.385Z,57.70
2023-04-17T12:14:26.303Z,57.74
2023-04-17T12:16:53.041Z,57.17
2023-04-17T12:19:22.020Z,56.97
2023-04-17T12:21:48.304Z,56.68
2023-04-17T12:24:15.275Z,56.84
2023-04-17T12:26:49.032Z,56.63
2023-04-17T12:29:16.533Z,57.52
2023-04-17T12:31:43.878Z,57.07
2023-04-17T12:34:12.095Z,56.29
2023-04-17T12:36:38.651Z,56.17
2023-04-17T12:39:05.000Z,56.10
2023-04-17T12:41:31.878Z,56.14
2023-04-17T12:44:01.603Z,56.06
2023-04-17T12:46:28.347Z,56.31
2023-04-17T12:48:58.388Z,56.88
2023-04-17T12:51:27.840Z,56.73
2023-04-17T12:53:55.490Z,57.65
2023-04-17T12:56:22.028Z,58.05
2023-04-17T12:58:48.346Z,57.68
2023-04-17T13:01:14.727Z,58.83
2023-04-17T13:03:41.407Z,59.27
2023-04-17T13:06:08.062Z,59.34
2023-04-17T13:08:34.421Z,59.74
2023-04-17T13:11:03.542Z,60.36
2023-04-17T13:13:29.897Z,60.07
2023-04-17T13:15:56.213Z,59.34
2023-04-17T13:18:22.606Z,58.96
2023-04-17T13:20:48.968Z,58.23
2023-04-17T13:23:15.367Z,58.32
2023-04-17T13:25:41.770Z,57.08
2023-04-17T13:28:08.208Z,57.36
2023-04-17T13:30:36.945Z,55.86
2023-04-17T13:33:03.498Z,55.53
2023-04-17T13:35:29.945Z,55.29
2023-04-17T13:38:00.650Z,55.72
2023-04-17T13:40:26.969Z,54.75
2023-04-17T13:42:53.293Z,55.78
2023-04-17T13:45:19.628Z,55.76
2023-04-17T13:47:46.009Z,55.61
2023-04-17T13:50:12.473Z,55.44
2023-04-17T13:52:38.770Z,55.68
2023-04-17T13:55:07.596Z,56.21
2023-04-17T13:57:33.990Z,55.37
2023-04-17T14:00:00.299Z,55.96
2023-04-17T14:02:26.877Z,55.30
2023-04-17T14:04:53.551Z,54.98
2023-04-17T14:07:19.874Z,55.24
2023-04-17T14:09:46.188Z,54.87
2023-04-17T14:12:16.623Z,54.65
2023-04-17T14:14:42.905Z,54.39
2023-04-17T14:17:09.206Z,55.03
2023-04-17T14:19:35.647Z,53.79
2023-04-17T14:22:02.013Z,54.57
2023-04-17T14:24:28.320Z,54.01
2023-04-17T14:26:54.722Z,53.85
2023-04-17T14:29:21.325Z,53.18
2023-04-17T14:31:47.819Z,54.19
2023-04-17T14:34:14.233Z,51.76
2023-04-17T14:36:41.938Z,51.54
2023-04-17T14:39:09.405Z,51.48
2023-04-17T14:41:36.034Z,49.27
2023-04-17T14:44:02.502Z,51.25
2023-04-17T14:46:28.906Z,50.28
2023-04-17T14:48:56.220Z,50.92
2023-04-17T14:51:23.957Z,51.28
2023-04-17T14:53:51.185Z,51.01
2023-04-17T14:56:17.591Z,50.32
2023-04-17T14:58:43.933Z,51.17
2023-04-17T15:01:10.867Z,49.43
2023-04-17T15:03:37.383Z,49.47
2023-04-17T15:06:04.162Z,48.82
2023-04-17T15:08:31.172Z,48.70
2023-04-17T15:10:58.088Z,49.83
2023-04-17T15:13:24.614Z,50.54
2023-04-17T15:15:50.907Z,51.73
2023-04-17T15:18:17.237Z,52.91
2023-04-17T15:20:43.543Z,53.03
2023-04-17T15:23:09.863Z,55.17
2023-04-17T15:25:36.198Z,54.95
2023-04-17T15:28:02.598Z,55.08
2023-04-17T15:30:28.884Z,54.74
2023-04-17T15:32:55.515Z,54.09
2023-04-17T15:35:21.968Z,54.53
2023-04-17T15:37:48.467Z,54.46
2023-04-17T15:40:16.291Z,53.97
2023-04-17T15:42:42.579Z,54.15
2023-04-17T15:45:09.628Z,53.93
2023-04-17T15:47:36.043Z,53.49
2023-04-17T15:50:02.402Z,52.66
2023-04-17T15:52:28.700Z,52.06
2023-04-17T15:54:54.994Z,50.97
2023-04-17T15:57:21.293Z,51.72
2023-04-17T15:59:47.695Z,51.75
2023-04-17T16:02:14.312Z,52.16
2023-04-17T16:04:42.845Z,52.12
2023-04-17T16:07:11.490Z,52.48
2023-04-17T16:09:39.671Z,51.82
2023-04-17T16:12:09.455Z,51.67
2023-04-17T16:14:40.064Z,52.27
2023-04-17T16:17:06.530Z,52.60
2023-04-17T16:19:32.986Z,53.02
2023-04-17T16:21:59.449Z,52.97
2023-04-17T16:24:26.141Z,52.95
2023-04-17T16:26:58.894Z,53.56
2023-04-17T16:29:27.023Z,53.37
2023-04-17T16:31:54.691Z,53.68
2023-04-17T16:34:21.190Z,54.22
2023-04-17T16:36:55.444Z,54.59
2023-04-17T16:39:21.810Z,54.03
2023-04-17T16:41:48.303Z,54.92
2023-04-17T16:44:14.744Z,55.07
2023-04-17T16:47:03.179Z,54.77
2023-04-17T16:49:28.463Z,54.25
2023-04-17T16:51:54.782Z,54.76
2023-04-17T16:54:21.567Z,54.08
2023-04-17T16:56:49.053Z,54.57
2023-04-17T16:59:15.768Z,55.24
2023-04-17T17:01:42.307Z,54.01
2023-04-17T17:04:08.849Z,54.88
2023-04-17T17:06:35.251Z,54.87
2023-04-17T17:09:01.627Z,54.17
2023-04-17T17:11:27.917Z,54.32
2023-04-17T17:13:54.297Z,54.26
2023-04-17T17:16:20.919Z,55.14
2023-04-17T17:18:48.036Z,51.08
2023-04-17T17:21:14.791Z,51.82
2023-04-17T17:23:41.774Z,51.71
2023-04-17T17:26:08.214Z,51.57
2023-04-17T17:28:35.176Z,50.86
2023-04-17T17:31:02.721Z,49.67
2023-04-17T17:33:29.775Z,48.79
2023-04-17T17:35:56.807Z,46.74
2023-04-17T17:38:23.652Z,46.33
2023-04-17T17:40:53.108Z,46.01
2023-04-17T17:43:19.494Z,45.81
2023-04-17T17:45:45.837Z,45.68
2023-04-17T17:48:15.251Z,45.70
2023-04-17T17:50:45.216Z,45.27
2023-04-17T17:53:12.867Z,45.65
2023-04-17T17:55:39.900Z,46.04
2023-04-17T17:58:07.759Z,45.10
2023-04-17T18:00:34.294Z,45.56
2023-04-17T18:03:01.114Z,45.49
2023-04-17T18:05:27.564Z,46.16
2023-04-17T18:07:53.883Z,46.72
2023-04-17T18:10:20.269Z,47.01
2023-04-17T18:12:46.579Z,46.85
2023-04-17T18:15:12.917Z,47.32
2023-04-17T18:17:39.259Z,45.86
2023-04-17T18:20:06.075Z,46.80
2023-04-17T18:22:38.446Z,46.85
2023-04-17T18:25:06.833Z,46.78
2023-04-17T18:27:36.087Z,47.59
2023-04-17T18:30:06.788Z,47.70
2023-04-17T18:32:33.117Z,48.19
2023-04-17T18:34:59.647Z,48.44
2023-04-17T18:37:26.105Z,48.94
2023-04-17T18:39:57.461Z,49.05
2023-04-17T18:42:23.989Z,49.47
2023-04-17T18:44:50.327Z,50.34
2023-04-17T18:47:16.814Z,50.07
2023-04-17T18:49:43.173Z,50.09
2023-04-17T18:52:09.492Z,49.35
2023-04-17T18:54:35.779Z,49.80
2023-04-17T18:57:02.192Z,49.92
2023-04-17T18:59:28.646Z,50.30
2023-04-17T19:01:55.013Z,50.18
2023-04-17T19:04:21.711Z,49.93
2023-04-17T19:06:47.960Z,49.57
2023-04-17T19:09:14.301Z,49.59
2023-04-17T19:11:40.692Z,49.75
2023-04-17T19:14:06.995Z,49.80
2023-04-17T19:16:33.341Z,49.52
2023-04-17T19:18:59.767Z,49.28
2023-04-17T19:21:26.138Z,49.58
2023-04-17T19:23:52.624Z,50.05
2023-04-17T19:26:18.973Z,50.91
2023-04-17T19:28:45.317Z,50.95
2023-04-17T19:31:11.734Z,50.88
2023-04-17T19:33:38.032Z,50.77
2023-04-17T19:36:04.520Z,50.93
2023-04-17T19:38:34.048Z,51.96
2023-04-17T19:41:15.132Z,52.25
2023-04-17T19:43:42.593Z,52.80
2023-04-17T19:46:09.307Z,53.59
2023-04-17T19:48:36.072Z,53.02
2023-04-17T19:51:03.035Z,53.25
2023-04-17T19:53:34.465Z,52.16
2023-04-17T19:56:01.595Z,51.13
2023-04-17T19:58:28.823Z,51.19
2023-04-17T20:00:55.202Z,52.69
2023-04-17T20:03:21.608Z,52.19
2023-04-17T20:05:49.390Z,51.02
2023-04-17T20:08:15.716Z,50.96
2023-04-17T20:10:42.020Z,51.13
2023-04-17T20:13:10.280Z,52.33
2023-04-17T20:15:36.832Z,52.30
2023-04-17T20:18:05.098Z,52.80
2023-04-17T20:20:31.528Z,54.07
2023-04-17T20:22:57.912Z,54.73
2023-04-17T20:25:24.618Z,55.82
2023-04-17T20:27:50.844Z,55.84
2023-04-17T20:30:22.696Z,55.38
2023-04-17T20:32:49.284Z,56.30
2023-04-17T20:35:16.793Z,57.45
2023-04-17T20:37:44.591Z,57.73
2023-04-17T20:40:13.891Z,59.46
2023-04-17T20:42:44.373Z,57.75
2023-04-17T20:45:11.490Z,58.65
2023-04-17T20:47:49.291Z,58.99
2023-04-17T20:50:21.794Z,59.44
2023-04-17T20:52:49.149Z,60.05
2023-04-17T20:55:18.212Z,59.80
2023-04-17T20:57:44.760Z,58.79
2023-04-17T21:00:12.058Z,58.65
2023-04-17T21:02:38.716Z,57.72
2023-04-17T21:05:07.068Z,57.94
2023-04-17T21:07:33.416Z,57.03
2023-04-17T21:09:59.701Z,58.06
2023-04-17T21:12:26.055Z,58.32
2023-04-17T21:14:52.389Z,56.87
2023-04-17T21:17:18.705Z,57.55
2023-04-17T21:19:45.909Z,57.23
2023-04-17T21:22:12.902Z,58.31
2023-04-17T21:24:39.592Z,58.61
2023-04-17T21:27:05.937Z,59.06
2023-04-17T21:29:32.212Z,59.57
2023-04-17T21:31:58.601Z,59.52
2023-04-17T21:34:25.602Z,58.37
2023-04-17T21:36:53.518Z,58.06
2023-04-17T21:39:20.552Z,58.57
2023-04-17T21:41:46.849Z,58.38
2023-04-17T21:44:13.360Z,58.30
2023-04-17T21:46:39.752Z,59.70
2023-04-17T21:49:06.045Z,60.53
2023-04-17T21:51:32.381Z,59.33
2023-04-17T21:53:58.913Z,59.61
2023-04-17T21:56:25.286Z,58.97
2023-04-17T21:58:51.662Z,58.70
2023-04-17T22:01:18.066Z,57.92
2023-04-17T22:03:44.394Z,59.01
2023-04-17T22:06:10.737Z,59.46
2023-04-17T22:08:37.023Z,60.01
2023-04-17T22:11:03.391Z,60.55
2023-04-17T22:13:30.172Z,60.97
2023-04-17T22:15:58.431Z,61.11
2023-04-17T22:18:28.608Z,61.15
2023-04-17T22:20:54.946Z,60.80
2023-04-17T22:23:21.399Z,60.01
2023-04-17T22:25:47.707Z,60.01
2023-04-17T22:28:14.006Z,59.88
2023-04-17T22:30:40.362Z,60.89
2023-04-17T22:33:06.658Z,60.95
2023-04-17T22:35:32.986Z,61.71
2023-04-17T22:37:59.261Z,60.82
2023-04-17T22:40:25.624Z,60.25
2023-04-17T22:42:51.907Z,60.01
2023-04-17T22:45:18.184Z,61.03
2023-04-17T22:47:44.514Z,60.71
2023-04-17T22:50:11.598Z,63.20
2023-04-17T22:52:37.960Z,62.06
2023-04-17T22:55:04.730Z,61.42
2023-04-17T22:57:30.939Z,61.94
2023-04-17T22:59:57.309Z,62.40
2023-04-17T23:02:23.659Z,61.57
2023-04-17T23:04:50.108Z,62.38
2023-04-17T23:07:16.390Z,61.99
2023-04-17T23:09:42.685Z,62.32
2023-04-17T23:12:08.966Z,63.21
2023-04-17T23:14:35.360Z,62.73
2023-04-17T23:17:01.625Z,62.80
2023-04-17T23:19:27.944Z,62.86
2023-04-17T23:21:54.411Z,62.88
2023-04-17T23:24:20.870Z,62.77
2023-04-17T23:26:48.704Z,63.43
2023-04-17T23:29:15.128Z,62.89
2023-04-17T23:31:42.790Z,62.75
2023-04-17T23:34:09.118Z,64.01
2023-04-17T23:36:35.494Z,62.43
2023-04-17T23:39:01.872Z,64.06
2023-04-17T23:41:29.546Z,62.79
2023-04-17T23:43:56.081Z,63.38
2023-04-17T23:46:22.673Z,62.31
2023-04-17T23:48:49.039Z,62.87
2023-04-17T23:51:15.338Z,62.00
2023-04-17T23:53:41.666Z,62.72
2023-04-17T23:56:08.040Z,63.20
2023-04-17T23:58:34.460Z,63.86
